Main page
METAR-TAF:

METAR-TAF

Airports :

Nakhchivan International Airport

Nakhchivan, Azerbaijan

latitude: 39-11-19N, longitude: 045-27-30E, elevation: 873 m

Current weather observation

The report was made 34 minutes ago, at 08:30 UTC
Wind 6 kt from the West/Southwest
Temperature 8°C
Humidity 53%
Pressure 1023 hPa
Visibility 10 km or more
Few clouds at a height of 5000 ft
Broken clouds at a height of 10000 ft

METAR: UBBN 180830Z 24006KT 9999 FEW050 BKN100 08/M01 Q1023 R14R/CLRD// NOSIG RMK MT OP QFE692

Time: 13:04 (09:04 UTC)

Forecast

The report was made 4 hours and 1 minutes ago, at 05:03 UTC
Forecast valid from 18 at 06 UTC to 19 at 06 UTC
Wind 4 kt from variable directions
Visibility: 8000 m
Scattered clouds at a height of 5000 ft
Broken clouds at a height of 9000 ft
Temporary
from 18 at 06 UTC to 18 at 14 UTC
Wind 10 kt from the West

TAF: UBBN 180503Z 1806/1906 VRB04KT 8000 SCT050 BKN090 TX15/1812Z TN01/1903Z TEMPO 1806/1814 28010KT

Weather observations and forecasts of more than 4000 airports (METAR and TAF reports).

The available stations are represented by yellow and red dots on the map.

Hover mouse over dot to see the name of the station.

Then click to see weather observations and forecasts.

To change the map : click on the green buttons with a black cross to zoom in, on the green button with a dash to zoom out, or on the green arrows for adjacent maps.


METAR-TAF: